createdAt,value
2023-03-13T05:00:34.449Z,1.20
2023-03-13T05:01:35.446Z,1.10
2023-03-13T05:02:35.365Z,1.90
2023-03-13T05:03:35.369Z,1.10
2023-03-13T05:04:35.483Z,1.90
2023-03-13T05:05:35.358Z,2.10
2023-03-13T05:06:35.341Z,1.40
2023-03-13T05:07:35.356Z,1.30
2023-03-13T05:08:35.318Z,1.40
2023-03-13T05:09:35.308Z,1.00
2023-03-13T05:10:35.310Z,1.20
2023-03-13T05:11:35.287Z,1.20
2023-03-13T05:12:35.272Z,1.20
2023-03-13T05:13:35.292Z,1.30
2023-03-13T05:14:35.240Z,1.40
2023-03-13T05:15:35.286Z,1.00
2023-03-13T05:16:35.234Z,1.00
2023-03-13T05:17:35.222Z,1.40
2023-03-13T05:18:35.228Z,1.30
2023-03-13T05:19:35.211Z,1.50
2023-03-13T05:20:35.183Z,1.60
2023-03-13T05:21:35.188Z,1.40
2023-03-13T05:22:35.170Z,1.20
2023-03-13T05:23:35.162Z,1.40
2023-03-13T05:24:35.153Z,1.50
2023-03-13T05:25:35.127Z,1.00
2023-03-13T05:26:35.142Z,1.60
2023-03-13T05:27:35.136Z,1.40
2023-03-13T05:28:35.131Z,1.60
2023-03-13T05:29:35.122Z,1.10
2023-03-13T05:30:35.082Z,1.20
2023-03-13T05:31:35.138Z,1.10
2023-03-13T05:32:35.142Z,1.50
2023-03-13T05:33:35.134Z,1.10
2023-03-13T05:34:35.042Z,1.30
2023-03-13T05:35:35.086Z,1.30
2023-03-13T05:36:35.010Z,1.30
2023-03-13T05:37:35.008Z,1.20
2023-03-13T05:38:35.015Z,1.00
2023-03-13T05:39:35.020Z,1.30
2023-03-13T05:40:34.969Z,1.50
2023-03-13T05:41:34.962Z,1.60
2023-03-13T05:42:34.955Z,0.90
2023-03-13T05:43:34.945Z,1.00
2023-03-13T05:44:34.944Z,1.10
2023-03-13T05:45:34.926Z,1.10
2023-03-13T05:46:35.074Z,1.40
2023-03-13T05:47:34.904Z,1.10
2023-03-13T05:48:34.878Z,1.20
2023-03-13T05:49:34.880Z,1.10
2023-03-13T05:50:34.884Z,1.50
2023-03-13T05:51:34.848Z,1.10
2023-03-13T05:52:34.878Z,1.10
2023-03-13T05:53:34.840Z,2.30
2023-03-13T05:54:34.846Z,1.10
2023-03-13T05:55:34.828Z,1.40
2023-03-13T05:56:34.795Z,1.30
2023-03-13T05:57:34.840Z,1.60
2023-03-13T05:58:34.816Z,1.30
2023-03-13T05:59:34.804Z,1.30
2023-03-13T06:00:34.752Z,1.40
2023-03-13T06:01:34.749Z,1.30
2023-03-13T06:02:34.795Z,1.60
2023-03-13T06:03:34.845Z,1.90
2023-03-13T06:04:34.823Z,1.30
2023-03-13T06:05:34.816Z,1.60
2023-03-13T06:06:34.703Z,1.40
2023-03-13T06:07:34.719Z,1.40
2023-03-13T06:08:34.742Z,1.50
2023-03-13T06:09:34.685Z,1.80
2023-03-13T06:10:34.690Z,1.50
2023-03-13T06:11:34.628Z,1.20
2023-03-13T06:12:34.674Z,1.00
2023-03-13T06:13:34.610Z,1.30
2023-03-13T06:14:34.615Z,1.20
2023-03-13T06:15:34.596Z,2.00
2023-03-13T06:16:34.840Z,1.10
2023-03-13T06:17:34.594Z,0.90
2023-03-13T06:18:34.583Z,1.10
2023-03-13T06:19:34.582Z,1.40
2023-03-13T06:20:34.540Z,1.10
2023-03-13T06:21:34.560Z,1.00
2023-03-13T06:22:34.694Z,1.30
2023-03-13T06:23:34.552Z,1.60
2023-03-13T06:24:34.532Z,1.60
2023-03-13T06:25:34.511Z,1.40
2023-03-13T06:26:34.535Z,1.00
2023-03-13T06:27:34.495Z,1.60
2023-03-13T06:28:34.457Z,1.70
2023-03-13T06:29:34.449Z,1.90
2023-03-13T06:30:34.441Z,1.80
2023-03-13T06:31:34.501Z,1.10
2023-03-13T06:32:34.716Z,1.00
2023-03-13T06:33:34.437Z,1.00
2023-03-13T06:34:34.375Z,1.20
2023-03-13T06:35:43.532Z,1.10
2023-03-13T06:36:34.418Z,1.90
2023-03-13T06:37:34.424Z,1.60
2023-03-13T06:38:34.358Z,1.10
2023-03-13T06:39:34.378Z,1.60
2023-03-13T06:40:34.341Z,1.10
2023-03-13T06:41:34.325Z,1.50
2023-03-13T06:42:34.317Z,1.20
2023-03-13T06:43:34.318Z,1.10
2023-03-13T06:44:34.271Z,1.60
2023-03-13T06:45:34.321Z,1.30
2023-03-13T06:46:34.321Z,1.40
2023-03-13T06:47:34.282Z,1.10
2023-03-13T06:48:34.271Z,1.90
2023-03-13T06:49:34.240Z,1.40
2023-03-13T06:50:34.215Z,2.10
2023-03-13T06:51:34.214Z,1.40
2023-03-13T06:52:43.447Z,1.20
2023-03-13T06:53:34.204Z,1.40
2023-03-13T06:54:34.196Z,1.50
2023-03-13T06:55:34.205Z,1.40
2023-03-13T06:56:34.201Z,1.20
2023-03-13T06:57:34.168Z,0.80
2023-03-13T06:58:34.173Z,1.70
2023-03-13T06:59:34.119Z,1.30
2023-03-13T07:00:34.154Z,1.20
2023-03-13T07:01:34.141Z,1.80
2023-03-13T07:02:34.111Z,1.30
2023-03-13T07:03:34.243Z,1.40
2023-03-13T07:04:34.082Z,1.00
2023-03-13T07:05:34.105Z,1.70
2023-03-13T07:06:34.062Z,1.20
2023-03-13T07:07:34.065Z,1.40
2023-03-13T07:08:34.076Z,1.20
2023-03-13T07:09:34.038Z,1.30
2023-03-13T07:10:34.017Z,1.20
2023-03-13T07:11:33.989Z,0.80
2023-03-13T07:12:34.039Z,1.30
2023-03-13T07:13:34.012Z,1.30
2023-03-13T07:14:33.990Z,1.00
2023-03-13T07:15:33.964Z,1.50
2023-03-13T07:16:34.086Z,1.90
2023-03-13T07:17:34.050Z,1.00
2023-03-13T07:18:33.930Z,1.50
2023-03-13T07:19:33.920Z,1.40
2023-03-13T07:20:34.049Z,1.10
2023-03-13T07:21:33.903Z,1.70
2023-03-13T07:22:33.890Z,1.40
2023-03-13T07:23:33.873Z,1.20
2023-03-13T07:24:33.975Z,1.60
2023-03-13T07:25:33.843Z,1.90
2023-03-13T07:26:33.899Z,1.80
2023-03-13T07:27:33.821Z,1.50
2023-03-13T07:28:36.363Z,0.70
2023-03-13T07:29:33.829Z,1.20
2023-03-13T07:30:33.849Z,1.00
2023-03-13T07:31:33.959Z,1.20
2023-03-13T07:32:33.838Z,1.30
2023-03-13T07:33:33.799Z,1.80
2023-03-13T07:34:33.794Z,1.30
2023-03-13T07:35:33.753Z,0.80
2023-03-13T07:36:33.816Z,1.20
2023-03-13T07:37:33.777Z,0.90
2023-03-13T07:38:33.790Z,1.00
2023-03-13T07:39:33.725Z,1.10
2023-03-13T07:40:33.734Z,1.80
2023-03-13T07:41:34.716Z,1.10
2023-03-13T07:42:33.672Z,1.10
2023-03-13T07:43:33.677Z,1.60
2023-03-13T07:44:33.723Z,1.10
2023-03-13T07:45:33.717Z,1.20
2023-03-13T07:46:33.652Z,1.20
2023-03-13T07:47:34.112Z,1.40
2023-03-13T07:48:33.780Z,1.30
2023-03-13T07:49:33.704Z,1.00
2023-03-13T07:50:33.662Z,1.20
2023-03-13T07:51:43.605Z,1.10
2023-03-13T07:52:33.629Z,1.40
2023-03-13T07:53:33.617Z,1.20
2023-03-13T07:54:33.568Z,1.20
2023-03-13T07:55:33.542Z,0.90
2023-03-13T07:56:33.549Z,1.00
2023-03-13T07:57:33.532Z,1.10
2023-03-13T07:58:33.614Z,1.00
2023-03-13T07:59:33.589Z,1.20
2023-03-13T08:00:33.561Z,1.40
2023-03-13T08:01:33.477Z,1.30
2023-03-13T08:02:33.662Z,1.30
2023-03-13T08:03:33.505Z,1.40
2023-03-13T08:04:33.481Z,1.50
2023-03-13T08:05:33.430Z,1.20
2023-03-13T08:06:34.253Z,1.70
2023-03-13T08:07:33.419Z,1.20
2023-03-13T08:08:33.475Z,1.10
2023-03-13T08:09:33.478Z,0.80
2023-03-13T08:10:33.382Z,1.40
2023-03-13T08:11:33.456Z,1.10
2023-03-13T08:12:33.411Z,1.40
2023-03-13T08:13:33.369Z,1.20
2023-03-13T08:14:33.335Z,1.20
2023-03-13T08:15:33.496Z,0.90
2023-03-13T08:16:33.517Z,1.30
2023-03-13T08:17:33.324Z,1.10
2023-03-13T08:18:33.465Z,1.40
2023-03-13T08:19:33.298Z,1.10
2023-03-13T08:20:33.304Z,0.90
2023-03-13T08:21:33.279Z,1.40
2023-03-13T08:22:33.240Z,1.40
2023-03-13T08:23:33.226Z,1.40
2023-03-13T08:24:33.219Z,1.10
2023-03-13T08:25:33.272Z,0.80
2023-03-13T08:26:33.211Z,1.40
2023-03-13T08:27:33.198Z,1.00
2023-03-13T08:28:33.243Z,1.20
2023-03-13T08:29:33.156Z,1.20
2023-03-13T08:30:33.199Z,1.40
2023-03-13T08:31:33.202Z,0.90
2023-03-13T08:32:33.175Z,0.90
2023-03-13T08:33:33.223Z,0.90
2023-03-13T08:34:33.139Z,1.00
2023-03-13T08:35:33.437Z,1.20
2023-03-13T08:36:33.196Z,0.70
2023-03-13T08:37:33.117Z,0.80
2023-03-13T08:38:33.177Z,1.50
2023-03-13T08:39:33.079Z,0.90
2023-03-13T08:40:33.084Z,1.00
2023-03-13T08:41:33.075Z,1.10
2023-03-13T08:42:33.056Z,0.60
2023-03-13T08:43:33.046Z,1.60
2023-03-13T08:44:33.029Z,1.10
2023-03-13T08:45:32.994Z,0.80
2023-03-13T08:46:33.138Z,1.00
2023-03-13T08:47:33.071Z,1.20
2023-03-13T08:48:32.967Z,1.00
2023-03-13T08:49:32.994Z,0.80
2023-03-13T08:50:32.957Z,0.60
2023-03-13T08:51:33.016Z,0.60
2023-03-13T08:52:32.926Z,1.20
2023-03-13T08:53:32.911Z,1.20
2023-03-13T08:54:32.934Z,1.00
2023-03-13T08:55:32.880Z,0.70
2023-03-13T08:56:32.969Z,0.60
2023-03-13T08:57:32.908Z,0.80
2023-03-13T08:58:32.872Z,0.70
2023-03-13T08:59:32.894Z,1.00
2023-03-13T09:00:32.864Z,1.10
2023-03-13T09:01:32.864Z,1.00
2023-03-13T09:02:33.055Z,1.20
2023-03-13T09:03:32.842Z,1.00
2023-03-13T09:04:32.791Z,1.30
2023-03-13T09:05:36.624Z,0.80
2023-03-13T09:06:32.776Z,1.10
2023-03-13T09:07:32.768Z,1.30
2023-03-13T09:08:32.732Z,1.00
2023-03-13T09:09:32.778Z,1.00
2023-03-13T09:10:32.735Z,0.90
2023-03-13T09:11:32.712Z,1.10
2023-03-13T09:12:32.704Z,0.90
2023-03-13T09:13:32.725Z,0.80
2023-03-13T09:14:33.701Z,0.90
2023-03-13T09:15:32.730Z,0.80
2023-03-13T09:16:32.700Z,1.10
2023-03-13T09:17:32.641Z,0.90
2023-03-13T09:18:32.718Z,0.80
2023-03-13T09:19:32.666Z,1.10
2023-03-13T09:20:32.612Z,1.20
2023-03-13T09:21:32.623Z,0.90
2023-03-13T09:22:32.618Z,1.10
2023-03-13T09:23:32.601Z,0.50
2023-03-13T09:24:32.599Z,1.40
2023-03-13T09:25:32.645Z,0.70
2023-03-13T09:26:32.622Z,0.80
2023-03-13T09:27:32.609Z,1.10
2023-03-13T09:28:32.582Z,0.60
2023-03-13T09:29:33.075Z,1.00
2023-03-13T09:30:32.509Z,0.80
2023-03-13T09:31:32.591Z,0.90
2023-03-13T09:32:32.633Z,0.90
2023-03-13T09:33:32.605Z,1.10
2023-03-13T09:34:32.553Z,1.00
2023-03-13T09:35:32.535Z,0.90
2023-03-13T09:36:32.509Z,0.80
2023-03-13T09:37:32.500Z,1.10
2023-03-13T09:38:32.451Z,1.00
2023-03-13T09:39:32.459Z,0.70
2023-03-13T09:40:32.422Z,1.00
2023-03-13T09:41:32.416Z,0.80
2023-03-13T09:42:32.371Z,0.70
2023-03-13T09:43:32.380Z,1.00
2023-03-13T09:44:32.450Z,0.80
2023-03-13T09:45:32.409Z,0.70
2023-03-13T09:46:32.513Z,1.00
2023-03-13T09:47:32.387Z,0.90
2023-03-13T09:48:32.315Z,0.90
2023-03-13T09:49:32.351Z,0.80
2023-03-13T09:50:32.319Z,0.80
2023-03-13T09:51:32.284Z,1.20
2023-03-13T09:52:32.329Z,0.70
2023-03-13T09:53:32.321Z,0.60
2023-03-13T09:54:32.251Z,0.70
2023-03-13T09:55:32.268Z,0.80
2023-03-13T09:56:32.248Z,0.70
2023-03-13T09:57:32.231Z,0.60
2023-03-13T09:58:32.218Z,0.70
2023-03-13T09:59:32.217Z,0.80
2023-03-13T10:00:32.226Z,0.80
2023-03-13T10:01:32.238Z,1.10
2023-03-13T10:02:32.155Z,0.80
2023-03-13T10:03:32.150Z,0.80
2023-03-13T10:04:32.184Z,0.60
2023-03-13T10:05:32.146Z,0.80
2023-03-13T10:06:32.121Z,0.70
2023-03-13T10:07:32.136Z,0.50
2023-03-13T10:08:32.176Z,0.70
2023-03-13T10:09:32.092Z,0.70
2023-03-13T10:10:32.169Z,0.80
2023-03-13T10:11:32.052Z,0.50
2023-03-13T10:12:32.111Z,1.10
2023-03-13T10:13:32.072Z,0.60
2023-03-13T10:14:32.041Z,0.90
2023-03-13T10:15:32.123Z,0.50
2023-03-13T10:16:32.046Z,0.80
2023-03-13T10:17:32.056Z,0.70
2023-03-13T10:18:32.073Z,0.90
2023-03-13T10:19:32.036Z,1.50
2023-03-13T10:20:31.993Z,0.80
2023-03-13T10:21:32.031Z,1.10
2023-03-13T10:22:31.943Z,0.70
2023-03-13T10:23:31.924Z,0.70
2023-03-13T10:24:31.911Z,0.80
2023-03-13T10:25:31.922Z,0.50
2023-03-13T10:26:31.917Z,0.80
2023-03-13T10:27:31.873Z,0.80
2023-03-13T10:28:31.878Z,0.80
2023-03-13T10:29:31.951Z,0.70
2023-03-13T10:30:31.899Z,0.60
2023-03-13T10:31:31.948Z,0.60
2023-03-13T10:32:31.845Z,0.90
2023-03-13T10:33:31.903Z,0.90
2023-03-13T10:34:31.800Z,0.50
2023-03-13T10:35:32.047Z,0.40
2023-03-13T10:36:31.809Z,0.80
2023-03-13T10:37:31.818Z,0.70
2023-03-13T10:38:31.787Z,0.60
2023-03-13T10:39:31.743Z,0.90
2023-03-13T10:40:31.777Z,0.90
2023-03-13T10:41:32.126Z,0.60
2023-03-13T10:42:31.734Z,0.90
2023-03-13T10:43:31.725Z,1.20
2023-03-13T10:44:31.745Z,0.90
2023-03-13T10:45:31.735Z,0.60
2023-03-13T10:46:31.882Z,0.60
2023-03-13T10:47:31.906Z,0.80
2023-03-13T10:48:31.650Z,1.10
2023-03-13T10:49:31.693Z,0.90
2023-03-13T10:50:31.700Z,0.70
2023-03-13T10:51:31.698Z,1.00
2023-03-13T10:52:31.614Z,0.50
2023-03-13T10:53:31.699Z,1.20
2023-03-13T10:54:31.598Z,0.70
2023-03-13T10:55:31.573Z,0.70
2023-03-13T10:56:31.554Z,0.80
2023-03-13T10:57:31.655Z,0.60
2023-03-13T10:58:31.565Z,0.80
2023-03-13T10:59:31.642Z,0.70
2023-03-13T11:00:31.535Z,0.40
2023-03-13T11:01:31.549Z,0.70
2023-03-13T11:02:31.676Z,0.80
2023-03-13T11:03:31.615Z,0.60
2023-03-13T11:04:31.566Z,0.90
2023-03-13T11:05:31.632Z,0.60
2023-03-13T11:06:31.504Z,0.60
2023-03-13T11:07:31.447Z,0.60
2023-03-13T11:08:31.624Z,0.70
2023-03-13T11:09:31.424Z,0.70
2023-03-13T11:10:31.543Z,0.80
2023-03-13T11:11:31.425Z,0.60
2023-03-13T11:12:31.423Z,0.60
2023-03-13T11:13:37.124Z,0.70
2023-03-13T11:14:31.443Z,0.60
2023-03-13T11:15:31.386Z,0.70
2023-03-13T11:16:31.428Z,0.50
2023-03-13T11:17:31.382Z,0.50
2023-03-13T11:18:31.426Z,0.70
2023-03-13T11:19:31.315Z,0.60
2023-03-13T11:20:31.396Z,0.50
2023-03-13T11:21:31.316Z,0.90
2023-03-13T11:22:31.342Z,0.60
2023-03-13T11:23:31.362Z,0.40
2023-03-13T11:24:31.304Z,0.60
2023-03-13T11:25:31.244Z,0.50
2023-03-13T11:26:31.240Z,0.70
2023-03-13T11:27:31.344Z,0.50
2023-03-13T11:28:31.236Z,0.30
2023-03-13T11:29:31.587Z,0.30
2023-03-13T11:30:31.261Z,0.60
2023-03-13T11:31:31.325Z,0.60
2023-03-13T11:32:31.242Z,0.50
2023-03-13T11:33:31.187Z,0.60
2023-03-13T11:34:31.223Z,0.70
2023-03-13T11:35:31.328Z,0.80
2023-03-13T11:36:31.136Z,0.50
2023-03-13T11:37:31.203Z,0.70
2023-03-13T11:38:31.218Z,0.60
2023-03-13T11:39:31.149Z,0.70
2023-03-13T11:40:31.141Z,0.50
2023-03-13T11:41:31.166Z,0.60
2023-03-13T11:42:31.078Z,0.50
2023-03-13T11:43:31.254Z,0.70
2023-03-13T11:44:31.158Z,0.80
2023-03-13T11:45:31.110Z,0.50
2023-03-13T11:46:31.178Z,0.60
2023-03-13T11:47:31.104Z,0.70
2023-03-13T11:48:31.076Z,0.80
2023-03-13T11:49:31.002Z,0.80
2023-03-13T11:50:30.984Z,0.60
2023-03-13T11:51:31.049Z,0.70
2023-03-13T11:52:31.030Z,0.60
2023-03-13T11:53:31.013Z,0.70
2023-03-13T11:54:30.968Z,0.70
2023-03-13T11:55:30.976Z,0.70
2023-03-13T11:56:30.910Z,0.40
2023-03-13T11:57:31.051Z,0.50
2023-03-13T11:58:30.908Z,0.70
2023-03-13T11:59:30.889Z,0.50
2023-03-13T12:00:30.868Z,0.50
2023-03-13T12:01:30.858Z,0.70
2023-03-13T12:02:30.930Z,0.70
2023-03-13T12:03:30.930Z,0.50
2023-03-13T12:04:30.873Z,0.50
2023-03-13T12:05:31.043Z,0.50
2023-03-13T12:06:31.812Z,0.40
2023-03-13T12:07:30.801Z,0.40
2023-03-13T12:08:31.577Z,0.80
2023-03-13T12:09:30.838Z,0.40
2023-03-13T12:10:30.845Z,0.60
2023-03-13T12:11:30.827Z,0.40
2023-03-13T12:12:30.996Z,0.50
2023-03-13T12:13:30.855Z,0.40
2023-03-13T12:14:30.741Z,0.60
2023-03-13T12:15:30.717Z,0.60
2023-03-13T12:16:30.749Z,0.40
2023-03-13T12:17:30.708Z,0.50
2023-03-13T12:18:30.724Z,0.60
2023-03-13T12:19:30.699Z,0.60
2023-03-13T12:20:30.796Z,0.30
2023-03-13T12:21:30.710Z,0.70
2023-03-13T12:22:30.658Z,0.50
2023-03-13T12:23:30.642Z,0.70
2023-03-13T12:24:30.619Z,0.40
2023-03-13T12:25:30.631Z,0.40
2023-03-13T12:26:30.619Z,0.30
2023-03-13T12:27:30.734Z,0.60
2023-03-13T12:28:30.621Z,0.60
2023-03-13T12:29:30.610Z,0.50
2023-03-13T12:30:30.916Z,0.70
2023-03-13T12:31:30.597Z,0.60
2023-03-13T12:32:30.546Z,0.40
2023-03-13T12:33:30.511Z,0.50
2023-03-13T12:34:30.504Z,0.60
2023-03-13T12:35:30.507Z,0.60
2023-03-13T12:36:31.287Z,0.40
2023-03-13T12:37:30.604Z,0.20
2023-03-13T12:38:30.515Z,0.40
2023-03-13T12:39:31.565Z,0.40
2023-03-13T12:40:30.484Z,0.60
2023-03-13T12:41:30.439Z,0.50
2023-03-13T12:42:30.439Z,0.30
2023-03-13T12:43:30.492Z,0.70
2023-03-13T12:44:30.470Z,0.30
2023-03-13T12:45:30.415Z,0.50
2023-03-13T12:46:30.447Z,0.60
2023-03-13T12:47:30.377Z,0.50
2023-03-13T12:48:30.369Z,0.40
2023-03-13T12:49:30.355Z,0.90
2023-03-13T12:50:30.354Z,0.70
2023-03-13T12:51:30.341Z,0.70
2023-03-13T12:52:30.321Z,0.40
2023-03-13T12:53:30.330Z,0.50
2023-03-13T12:54:30.314Z,0.40
2023-03-13T12:55:30.366Z,0.50
2023-03-13T12:56:30.266Z,0.60
2023-03-13T12:57:30.422Z,0.60
2023-03-13T12:58:30.335Z,0.40
2023-03-13T12:59:30.261Z,0.40
2023-03-13T13:00:30.236Z,0.50
2023-03-13T13:01:30.241Z,0.70
2023-03-13T13:02:30.269Z,0.60
2023-03-13T13:03:30.183Z,0.50
2023-03-13T13:04:30.326Z,0.90
2023-03-13T13:05:30.161Z,0.70
2023-03-13T13:06:30.176Z,0.70
2023-03-13T13:07:30.262Z,0.80
2023-03-13T13:08:30.139Z,0.90
2023-03-13T13:09:30.112Z,1.00
2023-03-13T13:10:30.116Z,0.50
2023-03-13T13:11:30.187Z,0.50
2023-03-13T13:12:30.086Z,0.50
2023-03-13T13:13:30.105Z,0.50
2023-03-13T13:14:31.684Z,0.60
2023-03-13T13:15:30.454Z,0.40
2023-03-13T13:16:30.688Z,0.50
2023-03-13T13:17:30.036Z,0.40
2023-03-13T13:18:29.997Z,0.50
2023-03-13T13:19:30.004Z,0.60
2023-03-13T13:20:29.986Z,0.50
2023-03-13T13:21:30.076Z,0.60
2023-03-13T13:22:30.039Z,0.60
2023-03-13T13:23:30.116Z,0.70
2023-03-13T13:24:29.954Z,0.50
2023-03-13T13:25:30.275Z,0.50
2023-03-13T13:26:30.049Z,0.60
2023-03-13T13:27:30.015Z,0.70
2023-03-13T13:28:30.024Z,0.70
2023-03-13T13:29:30.000Z,0.60
2023-03-13T13:30:29.932Z,0.40
2023-03-13T13:31:30.032Z,0.50
2023-03-13T13:32:30.437Z,0.40
2023-03-13T13:33:30.881Z,1.00
2023-03-13T13:34:30.366Z,0.60
2023-03-13T13:35:32.258Z,0.50
2023-03-13T13:36:29.941Z,0.70
2023-03-13T13:37:29.876Z,0.50
2023-03-13T13:38:30.755Z,0.50
2023-03-13T13:39:31.332Z,0.70
2023-03-13T13:40:30.370Z,0.40
2023-03-13T13:41:30.343Z,0.50
2023-03-13T13:42:29.824Z,0.50
2023-03-13T13:43:29.829Z,0.50
2023-03-13T13:44:29.863Z,0.40
2023-03-13T13:45:32.893Z,0.50
2023-03-13T13:46:29.829Z,0.50
2023-03-13T13:47:31.773Z,0.70
2023-03-13T13:48:29.829Z,0.60
2023-03-13T13:49:29.739Z,0.80
2023-03-13T13:50:29.693Z,1.10
2023-03-13T13:51:29.678Z,0.50
2023-03-13T13:52:29.710Z,0.60
2023-03-13T13:53:29.690Z,0.40
2023-03-13T13:54:29.707Z,0.60
2023-03-13T13:55:29.642Z,0.60
2023-03-13T13:56:29.694Z,0.50
2023-03-13T13:57:29.613Z,0.50
2023-03-13T13:58:29.601Z,0.30
2023-03-13T13:59:29.568Z,0.60
2023-03-13T14:00:29.558Z,1.30
2023-03-13T14:01:29.579Z,0.70
2023-03-13T14:02:29.541Z,0.80
2023-03-13T14:03:29.554Z,0.40
2023-03-13T14:04:30.371Z,0.40
2023-03-13T14:05:29.876Z,0.50
2023-03-13T14:06:29.587Z,0.60
2023-03-13T14:07:29.989Z,0.80
2023-03-13T14:08:29.546Z,0.60
2023-03-13T14:09:29.536Z,0.60
2023-03-13T14:10:29.657Z,0.70
2023-03-13T14:11:29.545Z,0.90
2023-03-13T14:12:29.968Z,0.70
2023-03-13T14:13:29.830Z,0.60
2023-03-13T14:14:29.473Z,0.80
2023-03-13T14:15:29.401Z,0.90
2023-03-13T14:16:29.517Z,0.80
2023-03-13T14:17:29.434Z,0.80
2023-03-13T14:18:29.385Z,0.70
2023-03-13T14:19:29.439Z,0.80
2023-03-13T14:20:29.554Z,0.40
2023-03-13T14:21:30.391Z,0.60
2023-03-13T14:22:29.599Z,1.00
2023-03-13T14:23:29.437Z,0.60
2023-03-13T14:24:29.346Z,0.80
2023-03-13T14:25:29.289Z,0.90
2023-03-13T14:26:29.356Z,0.70
2023-03-13T14:27:29.475Z,0.50
2023-03-13T14:28:29.269Z,0.80
2023-03-13T14:29:29.287Z,0.70
2023-03-13T14:30:29.246Z,0.50
2023-03-13T14:31:29.388Z,0.80
2023-03-13T14:32:29.389Z,0.60
2023-03-13T14:33:29.281Z,0.50
2023-03-13T14:34:31.556Z,0.50
2023-03-13T14:35:29.210Z,0.60
2023-03-13T14:36:29.209Z,1.00
2023-03-13T14:37:29.249Z,0.60
2023-03-13T14:38:29.151Z,0.70
2023-03-13T14:39:29.296Z,0.70
2023-03-13T14:40:29.140Z,0.60
2023-03-13T14:41:29.925Z,0.50
2023-03-13T14:42:29.165Z,0.60
2023-03-13T14:43:29.280Z,1.70
2023-03-13T14:44:29.250Z,1.80
2023-03-13T14:45:29.115Z,0.50
2023-03-13T14:46:29.194Z,0.70
2023-03-13T14:47:29.186Z,0.70
2023-03-13T14:48:29.045Z,0.60
2023-03-13T14:49:29.130Z,0.70
2023-03-13T14:50:29.049Z,0.50
2023-03-13T14:51:29.017Z,0.60
2023-03-13T14:52:29.065Z,0.60
2023-03-13T14:53:29.025Z,0.60
2023-03-13T14:54:29.045Z,0.70
2023-03-13T14:55:28.983Z,0.60
2023-03-13T14:56:28.973Z,0.60
2023-03-13T14:57:29.104Z,0.50
2023-03-13T14:58:28.981Z,0.70
2023-03-13T14:59:28.955Z,0.90
2023-03-13T15:00:28.926Z,0.50
2023-03-13T15:01:28.983Z,0.90
2023-03-13T15:02:28.897Z,0.60
2023-03-13T15:03:28.885Z,0.80
2023-03-13T15:04:28.919Z,0.80
2023-03-13T15:05:28.847Z,0.50
2023-03-13T15:06:28.836Z,0.70
2023-03-13T15:07:28.876Z,0.60
2023-03-13T15:08:28.811Z,0.70
2023-03-13T15:09:28.882Z,0.70
2023-03-13T15:10:28.796Z,0.80
2023-03-13T15:11:28.819Z,0.60
2023-03-13T15:12:28.783Z,0.70
2023-03-13T15:13:28.832Z,0.40
2023-03-13T15:14:28.765Z,0.60
2023-03-13T15:15:28.877Z,0.50
2023-03-13T15:16:28.938Z,0.60
2023-03-13T15:17:28.782Z,0.50
2023-03-13T15:18:28.769Z,0.60
2023-03-13T15:19:28.712Z,0.90
2023-03-13T15:20:28.684Z,0.50
2023-03-13T15:21:28.785Z,0.60
2023-03-13T15:22:28.684Z,0.60
2023-03-13T15:23:28.744Z,0.60
2023-03-13T15:24:28.652Z,0.60
2023-03-13T15:25:28.629Z,0.60
2023-03-13T15:26:28.608Z,0.80
2023-03-13T15:27:28.619Z,0.70
2023-03-13T15:28:28.604Z,0.70
2023-03-13T15:29:28.597Z,0.80
2023-03-13T15:30:28.588Z,0.80
2023-03-13T15:31:28.609Z,0.60
2023-03-13T15:32:28.576Z,0.40
2023-03-13T15:33:28.555Z,0.60
2023-03-13T15:34:28.564Z,0.80
2023-03-13T15:35:28.521Z,0.50
2023-03-13T15:36:28.514Z,0.40
2023-03-13T15:37:28.514Z,0.80
2023-03-13T15:38:28.511Z,0.70
2023-03-13T15:39:29.725Z,1.60
2023-03-13T15:40:28.495Z,1.00
2023-03-13T15:41:28.470Z,0.70
2023-03-13T15:42:28.503Z,0.80
2023-03-13T15:43:28.454Z,0.60
2023-03-13T15:44:28.444Z,0.60
2023-03-13T15:45:28.408Z,0.50
2023-03-13T15:46:28.650Z,0.60
2023-03-13T15:47:28.419Z,0.50
2023-03-13T15:48:28.485Z,0.80
2023-03-13T15:49:28.457Z,0.60
2023-03-13T15:50:28.358Z,0.70
2023-03-13T15:51:28.355Z,0.70
2023-03-13T15:52:28.352Z,0.90
2023-03-13T15:53:28.331Z,0.50
2023-03-13T15:54:28.318Z,0.70
2023-03-13T15:55:28.301Z,0.80
2023-03-13T15:56:28.286Z,0.80
2023-03-13T15:57:28.364Z,0.60
2023-03-13T15:58:28.278Z,0.80
2023-03-13T15:59:28.244Z,0.90
2023-03-13T16:00:28.252Z,0.60
2023-03-13T16:01:28.381Z,0.70
2023-03-13T16:02:28.245Z,0.60
2023-03-13T16:03:28.262Z,0.50
2023-03-13T16:04:28.304Z,0.70
2023-03-13T16:05:28.212Z,0.80
2023-03-13T16:06:28.269Z,0.80
2023-03-13T16:07:28.312Z,0.60
2023-03-13T16:08:36.924Z,0.80
2023-03-13T16:09:28.322Z,0.90
2023-03-13T16:10:28.138Z,0.70
2023-03-13T16:11:28.157Z,0.60
2023-03-13T16:12:28.135Z,0.90
2023-03-13T16:13:28.146Z,0.90
2023-03-13T16:14:28.136Z,0.90
2023-03-13T16:15:28.174Z,0.80
2023-03-13T16:16:28.096Z,0.70
2023-03-13T16:17:28.123Z,0.60
2023-03-13T16:18:28.097Z,1.00
2023-03-13T16:19:28.057Z,0.80
2023-03-13T16:20:28.037Z,0.60
2023-03-13T16:21:28.050Z,0.60
2023-03-13T16:22:28.044Z,0.90
2023-03-13T16:23:27.999Z,0.80
2023-03-13T16:24:28.015Z,1.00
2023-03-13T16:25:27.984Z,0.70
2023-03-13T16:26:28.060Z,0.70
2023-03-13T16:27:27.991Z,0.80
2023-03-13T16:28:27.947Z,0.60
2023-03-13T16:29:27.989Z,0.60
2023-03-13T16:30:27.942Z,0.60
2023-03-13T16:31:27.959Z,0.60
2023-03-13T16:32:27.979Z,0.60
2023-03-13T16:33:27.926Z,0.60
2023-03-13T16:34:27.930Z,1.20
2023-03-13T16:35:27.890Z,0.70
2023-03-13T16:36:27.872Z,1.10
2023-03-13T16:37:28.074Z,0.90
2023-03-13T16:38:27.983Z,0.70
2023-03-13T16:39:27.859Z,0.90
2023-03-13T16:40:27.806Z,0.70
2023-03-13T16:41:27.856Z,0.80
2023-03-13T16:42:27.820Z,0.70
2023-03-13T16:43:27.785Z,0.70
2023-03-13T16:44:27.827Z,0.60
2023-03-13T16:45:27.755Z,1.40
2023-03-13T16:46:27.784Z,0.60
2023-03-13T16:47:27.736Z,0.60
2023-03-13T16:48:27.748Z,1.00
2023-03-13T16:49:27.728Z,0.70
2023-03-13T16:50:28.497Z,0.80
2023-03-13T16:51:28.030Z,0.80
2023-03-13T16:52:27.671Z,0.80
2023-03-13T16:53:27.684Z,1.00
2023-03-13T16:54:27.667Z,0.70
2023-03-13T16:55:27.641Z,0.70
2023-03-13T16:56:27.658Z,0.70
2023-03-13T16:57:27.621Z,0.90
2023-03-13T16:58:27.616Z,0.80
2023-03-13T16:59:27.667Z,0.90
2023-03-13T17:00:27.599Z,1.20
2023-03-13T17:01:27.625Z,0.80
2023-03-13T17:02:27.647Z,0.80
2023-03-13T17:03:27.593Z,1.00
2023-03-13T17:04:28.088Z,0.90
2023-03-13T17:05:27.594Z,0.70
2023-03-13T17:06:27.531Z,0.80
2023-03-13T17:07:27.538Z,0.90
2023-03-13T17:08:27.549Z,1.20
2023-03-13T17:09:27.530Z,0.40
2023-03-13T17:10:27.520Z,0.60
2023-03-13T17:11:27.490Z,0.60
2023-03-13T17:12:27.486Z,0.80
2023-03-13T17:13:27.457Z,0.70
2023-03-13T17:14:27.491Z,1.10
2023-03-13T17:15:27.475Z,0.80
2023-03-13T17:16:27.415Z,1.00
2023-03-13T17:17:27.466Z,1.00
2023-03-13T17:18:27.393Z,0.90
2023-03-13T17:19:27.429Z,0.80
2023-03-13T17:20:27.409Z,0.80
2023-03-13T17:21:27.357Z,1.00
2023-03-13T17:22:27.356Z,0.80
2023-03-13T17:23:27.336Z,0.70
2023-03-13T17:24:27.365Z,0.60
2023-03-13T17:25:27.310Z,0.80
2023-03-13T17:26:27.301Z,0.80
2023-03-13T17:27:27.290Z,0.80
2023-03-13T17:28:27.326Z,0.80
2023-03-13T17:29:27.281Z,0.90
2023-03-13T17:30:27.267Z,0.90
2023-03-13T17:31:27.664Z,0.50
2023-03-13T17:32:27.261Z,1.00
2023-03-13T17:33:27.222Z,0.80
2023-03-13T17:34:27.307Z,0.60
2023-03-13T17:35:27.287Z,0.90
2023-03-13T17:36:27.321Z,0.70
2023-03-13T17:37:27.189Z,1.00
2023-03-13T17:38:27.199Z,0.90
2023-03-13T17:39:27.162Z,0.80
2023-03-13T17:40:27.193Z,0.80
2023-03-13T17:41:27.231Z,0.70
2023-03-13T17:42:27.179Z,0.80
2023-03-13T17:43:27.164Z,0.70
2023-03-13T17:44:27.157Z,0.90
2023-03-13T17:45:27.176Z,0.70
2023-03-13T17:46:27.167Z,0.70
2023-03-13T17:47:27.233Z,0.60
2023-03-13T17:48:27.210Z,0.80
2023-03-13T17:49:27.105Z,0.90
2023-03-13T17:50:27.190Z,0.80
2023-03-13T17:51:27.085Z,0.90
2023-03-13T17:52:27.116Z,0.70
2023-03-13T17:53:27.068Z,0.80
2023-03-13T17:54:27.065Z,0.70
2023-03-13T17:55:27.493Z,0.50
2023-03-13T17:56:27.033Z,0.80
2023-03-13T17:57:27.019Z,0.80
2023-03-13T17:58:27.039Z,0.60
2023-03-13T17:59:28.145Z,0.70
2023-03-13T18:00:27.024Z,0.60
2023-03-13T18:01:27.014Z,0.80
2023-03-13T18:02:27.125Z,0.60
2023-03-13T18:03:26.952Z,0.90
2023-03-13T18:04:26.978Z,1.10
2023-03-13T18:05:26.965Z,0.90
2023-03-13T18:06:26.976Z,1.10
2023-03-13T18:07:27.029Z,1.10
2023-03-13T18:08:26.951Z,0.80
2023-03-13T18:09:26.978Z,1.30
2023-03-13T18:10:26.974Z,0.80
2023-03-13T18:11:26.880Z,0.80
2023-03-13T18:12:26.882Z,1.10
2023-03-13T18:13:26.908Z,0.80
2023-03-13T18:14:26.872Z,0.70
2023-03-13T18:15:26.848Z,0.60
2023-03-13T18:16:26.961Z,0.50
2023-03-13T18:17:26.947Z,0.90
2023-03-13T18:18:26.804Z,0.90